Westchester County Airport
KHPN : now visible

Airfield :











YOU CAN JOIN US ON...

 
LOGIN :

Register | Disclaimer

   EN    FR    IT 

 









Legend :    VFR   Marginal VFR   IFR   Intensive IFR   Very Intensive IFR
Visi :
Ceiling :
>= 8 km
>= 3000ft
5 to 8 km
1000 to 3000 ft
1500m to 5 km
500 to 1000 ft
800 to 1500m
200 to 500 ft
< 800m
< 200 ft
Symbols :   Thunderstorms  Fog  Heavy snow  Heavy precipitations  Wind > 20 kt






- Airport Elevation : 439 ft
- IATA code : HPN


KHPN - Westchester County

CURRENT METAR :
  • 280356Z VRB03KT 10SM BKN003 17/16 A3023 RMK AO2 SLP233 T01720161

EXPIRED METARs :
  • 280256Z 17004KT 10SM BKN003 BKN007 17/16 A3022 RMK AO2 SLP230 T01720161 50007
  • 280156Z 00000KT 10SM BKN006 18/17 A3022 RMK AO2 SLP231 T01780167
  • 280133Z 15006KT 10SM BKN006 17/16 A3021 RMK AO2 T01720161
  • 280121Z 15003KT 10SM SCT007 17/16 A3021 RMK AO2 T01720161

TAF KHPN
Valid from the 28 at 03:00 until the 29 at 00:00 UTC


280259Z 2803/2824 VRB03KT 2SM BR OVC005
FM280500 VRB03KT 1/2SM FG OVC003
FM281400 14006KT 3SM BR BKN005 OVC010
FM281600 15006KT 3SM BR OVC010
PROB30 2818/2824 5SM -SHRA OVC009 AMD NOT SKED
KZBW FIR / North America



MET'MAP, your aeronautical weather chart ! - Copyright ORBIFLY December 2007 - Disclaimer

ORBIFLY MET'MAP TEAM :

Programming & Development : Alexandra Zaïnal
Concept & original design : Baudouin d'Aumeries
Assistance for programming : Marc-Olivier Méhu
Technical & hardware support : Manuel Goepfert

Contact : metmap@orbifly.com




SOURCES & CREDITS :

   NOAA       Earth
Advisory